Basen — LMPC — position and weather

sailwx.info

Track history (hours):
 
Tides and Currents Weather Stations Pressure Air Temp Water Temp Dewpoint Dewpoint Depression Visibility Wind Speed Wind Dir Waves Ship Positions

Basen

Last reported at 2018-Aug-15 02:30 UTC. Time now 2018-Aug-15 03:00 UTC.
Position N 63°22' E 007°47'.

Length 47 m.

Type: Cargo ship. MMSI: 257062400.

Date/timePositionNaut miles runAvg speedWind from/ knotsBaromVisibWave heightAir tempDewpointWater temp
2018-Aug-15 02:30N 63°22' E 007°47'2 4.3
2018-Aug-15 02:00N 63°21' E 007°42'2 5.0
2018-Aug-15 01:30N 63°23' E 007°42'3 6.2
2018-Aug-15 01:00N 63°25' E 007°48'3 6.1
2018-Aug-15 00:29N 63°28' E 007°51'3 6.1
2018-Aug-15 00:00N 63°31' E 007°54'3 5.8
2018-Aug-14 23:30N 63°33' E 007°58'3 5.9
2018-Aug-14 23:00N 63°34' E 008°04'3 6.0
2018-Aug-14 22:30N 63°36' E 008°10'3 6.1
2018-Aug-14 22:00N 63°37' E 008°16'3 6.0
2018-Aug-14 21:30N 63°38' E 008°23'3 6.0
2018-Aug-14 20:59N 63°39' E 008°29'3 6.3
2018-Aug-14 20:30N 63°39' E 008°36'3 5.8
2018-Aug-14 20:00N 63°40' E 008°42'3 6.4
2018-Aug-14 19:30N 63°41' E 008°50'4 8.9
2018-Aug-14 19:01N 63°43' E 008°57'4 8.6
2018-Aug-14 18:30N 63°47' E 009°03'4 8.5
2018-Aug-14 18:00N 63°50' E 009°09'5 8.7
2018-Aug-14 17:29N 63°54' E 009°16'4 8.9
2018-Aug-14 17:00N 63°57' E 009°21'5 8.9
2018-Aug-14 16:30N 64°01' E 009°27'4 8.9
2018-Aug-14 16:00N 64°04' E 009°33'5 9.0
2018-Aug-14 15:30N 64°08' E 009°39'5 9.1
2018-Aug-14 15:00N 64°12' E 009°45'5 9.1
2018-Aug-14 14:29N 64°15' E 009°52'5 9.2
2018-Aug-14 14:00N 64°19' E 009°59'4 8.9
2018-Aug-14 13:30N 64°22' E 010°06'4 8.9
2018-Aug-14 13:00N 64°25' E 010°13'5 8.9
2018-Aug-14 12:29N 64°29' E 010°20'4 9.0
2018-Aug-14 12:00N 64°32' E 010°27'5 8.9
2018-Aug-14 11:29N 64°35' E 010°35'4 8.9
2018-Aug-14 10:59N 64°38' E 010°42'4 9.1
2018-Aug-14 10:30N 64°41' E 010°49'4 8.4
2018-Aug-14 09:59N 64°44' E 010°57'4 8.3
2018-Aug-14 09:30N 64°47' E 011°04'5 8.9
2018-Aug-14 09:00N 64°50' E 011°11'4 7.4
2018-Aug-14 08:30N 64°53' E 011°17'4 8.8
2018-Aug-14 08:00N 64°56' E 011°25'5 9.2
2018-Aug-14 07:30N 64°58' E 011°34'4 8.5
2018-Aug-14 07:01N 65°01' E 011°41'4 8.8
2018-Aug-14 06:30N 65°05' E 011°47'4 8.9
2018-Aug-14 06:00N 65°09' E 011°50'4 8.8
2018-Aug-14 05:30N 65°13' E 011°54'5 9.0
2018-Aug-14 05:00N 65°17' E 011°58'4 9.0
2018-Aug-14 04:30N 65°21' E 012°03'5 9.2
2018-Aug-14 04:00N 65°25' E 012°09'3 5.3
2018-Aug-14 03:29N 65°28' E 012°12'0 0.1
2018-Aug-14 03:00N 65°28' E 012°11'0 0.0
2018-Aug-14 02:30N 65°28' E 012°11'0 0.0
2018-Aug-14 02:00N 65°28' E 012°11'0 0.0
2018-Aug-14 01:29N 65°28' E 012°11'0 0.0
2018-Aug-14 00:59N 65°28' E 012°11'0 0.9
2018-Aug-14 00:29N 65°28' E 012°12'3 6.4
2018-Aug-14 00:01N 65°31' E 012°12'4 8.0
2018-Aug-13 23:30N 65°35' E 012°12'4 8.2
2018-Aug-13 23:01N 65°39' E 012°12'3 5.0
2018-Aug-13 22:30N 65°42' E 012°11'0 0.0
2018-Aug-13 22:00N 65°42' E 012°11'1 2.1
2018-Aug-13 21:30N 65°43' E 012°11'4 8.7
2018-Aug-13 21:00N 65°47' E 012°10'4 8.9
2018-Aug-13 20:30N 65°52' E 012°11'5 9.1
2018-Aug-13 20:00N 65°56' E 012°11'5 8.7
2018-Aug-13 19:29N 66°00' E 012°07'4 8.7
2018-Aug-13 19:00N 66°04' E 012°11'5 8.8
2018-Aug-13 18:28N 66°08' E 012°17'2 5.0
2018-Aug-13 18:01N 66°10' E 012°19'0 0.0
2018-Aug-13 17:31N 66°10' E 012°19'0 0.0
2018-Aug-13 17:00N 66°10' E 012°19'0 0.0
2018-Aug-13 16:29N 66°10' E 012°19'0 0.0
2018-Aug-13 15:59N 66°10' E 012°19'0 0.0
2018-Aug-13 15:30N 66°10' E 012°19'0 0.0
2018-Aug-13 15:00N 66°10' E 012°19'0 0.0
2018-Aug-13 14:30N 66°10' E 012°19'2 4.9
2018-Aug-13 14:00N 66°08' E 012°16'4 8.7
2018-Aug-13 13:30N 66°04' E 012°11'4 8.4
2018-Aug-13 13:00N 66°01' E 012°07'4 8.6
2018-Aug-13 12:30N 65°57' E 012°11'4 8.8
2018-Aug-13 12:00N 65°52' E 012°11'4 8.8
2018-Aug-13 11:30N 65°48' E 012°11'5 8.9
2018-Aug-13 11:00N 65°43' E 012°12'4 8.4
2018-Aug-13 10:30N 65°39' E 012°12'4 8.5
2018-Aug-13 09:59N 65°35' E 012°12'4 8.4
2018-Aug-13 09:30N 65°31' E 012°12'3 5.9
2018-Aug-13 09:00N 65°28' E 012°12'0 0.1
2018-Aug-13 08:30N 65°28' E 012°11'0 0.0
2018-Aug-13 07:59N 65°28' E 012°11'0 0.0
2018-Aug-13 07:29N 65°28' E 012°11'0 0.0
2018-Aug-13 07:00N 65°28' E 012°11'0 0.0
2018-Aug-13 06:30N 65°28' E 012°11'0 0.0
2018-Aug-13 06:00N 65°28' E 012°11'0 0.0
2018-Aug-13 05:30N 65°28' E 012°11'0 0.0
2018-Aug-13 05:00N 65°28' E 012°11'0 0.0
2018-Aug-13 04:31N 65°28' E 012°11'0 0.0
2018-Aug-13 04:01N 65°28' E 012°11'0 0.0
2018-Aug-13 03:28N 65°28' E 012°11'0 0.0
2018-Aug-13 03:00N 65°28' E 012°11'0 0.0
2018-Aug-13 02:30N 65°28' E 012°11'0 0.0
2018-Aug-13 02:00N 65°28' E 012°11'0 0.0
2018-Aug-13 01:30N 65°28' E 012°11'0 0.0
2018-Aug-13 01:00N 65°28' E 012°11'0 0.0
2018-Aug-13 00:29N 65°28' E 012°11'0 0.0
2018-Aug-13 00:01N 65°28' E 012°11'0 0.0
2018-Aug-12 23:30N 65°28' E 012°11'0 0.0
2018-Aug-12 23:00N 65°28' E 012°11'0 0.0
2018-Aug-12 22:29N 65°28' E 012°11'0 0.0
2018-Aug-12 22:00N 65°28' E 012°11'0 0.0
2018-Aug-12 21:29N 65°28' E 012°11'0 0.0
2018-Aug-12 21:00N 65°28' E 012°11'0 0.0
2018-Aug-12 20:29N 65°28' E 012°11'0 0.0
2018-Aug-12 20:00N 65°28' E 012°11'0 0.0
2018-Aug-12 19:30N 65°28' E 012°11'0 0.7
2018-Aug-12 19:00N 65°28' E 012°12'4 7.6
2018-Aug-12 18:30N 65°32' E 012°12'4 8.9
2018-Aug-12 18:00N 65°36' E 012°14'5 9.1
2018-Aug-12 17:30N 65°41' E 012°16'5 9.1
2018-Aug-12 17:00N 65°45' E 012°19'5 9.2
2018-Aug-12 16:30N 65°50' E 012°22'5 9.4
2018-Aug-12 16:00N 65°54' E 012°22'5 9.0
2018-Aug-12 15:29N 65°58' E 012°28'4 8.8
2018-Aug-12 15:00N 66°02' E 012°34'4 8.7
2018-Aug-12 14:30N 66°05' E 012°41'4 8.7
2018-Aug-12 14:01N 66°08' E 012°48'4 8.8
2018-Aug-12 13:31N 66°12' E 012°52'5 9.0
2018-Aug-12 13:00N 66°17' E 012°55'5 9.2
2018-Aug-12 12:30N 66°21' E 012°57'4 8.9
2018-Aug-12 12:00N 66°26' E 012°59'4 8.7
2018-Aug-12 11:30N 66°30' E 012°59'4 7.6
2018-Aug-12 11:00N 66°33' E 013°03'4 8.3
2018-Aug-12 10:29N 66°38' E 013°05'4 8.9
2018-Aug-12 10:00N 66°42' E 013°09'4 8.4
2018-Aug-12 09:30N 66°45' E 013°13'4 8.5
2018-Aug-12 09:00N 66°50' E 013°16'4 8.1
2018-Aug-12 08:29N 66°53' E 013°23'4 7.9
2018-Aug-12 08:00N 66°56' E 013°29'3 5.5
2018-Aug-12 07:31N 66°58' E 013°33'3 6.7
2018-Aug-12 07:00N 66°59' E 013°41'3 5.8
2018-Aug-12 06:30N 67°01' E 013°46'3 5.7
2018-Aug-12 06:00N 67°03' E 013°52'3 6.2
2018-Aug-12 05:30N 67°05' E 013°57'3 6.3
2018-Aug-12 05:00N 67°08' E 014°01'3 6.2
2018-Aug-12 04:31N 67°11' E 014°05'3 5.4
2018-Aug-12 04:00N 67°13' E 014°08'3 6.0
2018-Aug-12 03:30N 67°16' E 014°12'3 6.2
2018-Aug-12 03:01N 67°17' E 014°20'2 3.3
2018-Aug-12 02:30N 67°18' E 014°23'0 0.0
2018-Aug-12 02:01N 67°18' E 014°23'0 0.0
2018-Aug-12 01:31N 67°18' E 014°23'0 0.0
2018-Aug-12 01:01N 67°18' E 014°23'0 0.0
2018-Aug-12 00:30N 67°18' E 014°23'0 0.0
2018-Aug-12 00:00N 67°18' E 014°23'0 0.0
2018-Aug-11 23:31N 67°18' E 014°23'0 0.0
2018-Aug-11 22:59N 67°18' E 014°23'0 0.0
2018-Aug-11 22:30N 67°18' E 014°23'0 0.0
2018-Aug-11 21:59N 67°18' E 014°23'0 0.0
2018-Aug-11 21:31N 67°18' E 014°23'0 0.0
2018-Aug-11 20:59N 67°18' E 014°23'0 0.0
2018-Aug-11 20:30N 67°18' E 014°23'0 0.0
2018-Aug-11 20:01N 67°18' E 014°23'0 0.0
2018-Aug-11 19:31N 67°18' E 014°23'0 0.0
2018-Aug-11 19:00N 67°18' E 014°23'0 0.0
2018-Aug-11 18:31N 67°18' E 014°23'0 0.0
2018-Aug-11 18:00N 67°18' E 014°23'0 0.0
2018-Aug-11 17:30N 67°18' E 014°23'0 0.0
2018-Aug-11 17:01N 67°18' E 014°23'0 0.0
2018-Aug-11 16:31N 67°18' E 014°23'0 0.0
2018-Aug-11 16:00N 67°18' E 014°23'0 0.0
2018-Aug-11 15:31N 67°18' E 014°23'0 0.0
2018-Aug-11 15:00N 67°18' E 014°23'0 0.0
2018-Aug-11 14:30N 67°18' E 014°23'0 0.0
2018-Aug-11 14:00N 67°18' E 014°23'0 0.0
2018-Aug-11 13:30N 67°18' E 014°23'0 0.0
2018-Aug-11 13:00N 67°18' E 014°23'0 0.0
2018-Aug-11 12:31N 67°18' E 014°23'0 0.0
2018-Aug-11 12:00N 67°18' E 014°23'0 0.0
2018-Aug-11 11:31N 67°18' E 014°23'0 0.0
2018-Aug-11 11:00N 67°18' E 014°23'0 0.0
2018-Aug-11 10:30N 67°18' E 014°23'0 0.0
2018-Aug-11 10:01N 67°18' E 014°23'0 0.0
2018-Aug-11 09:30N 67°18' E 014°23'0 0.0
2018-Aug-11 09:00N 67°18' E 014°23'0 0.0
2018-Aug-11 08:31N 67°18' E 014°23'0 0.0
2018-Aug-11 08:01N 67°18' E 014°23'0 0.0
2018-Aug-11 07:30N 67°18' E 014°23'0 0.0
2018-Aug-11 07:01N 67°18' E 014°23'0 0.0
2018-Aug-11 06:30N 67°18' E 014°23'0 0.0
2018-Aug-11 06:00N 67°18' E 014°23'0 0.0
2018-Aug-11 05:30N 67°18' E 014°23'0 0.0
2018-Aug-11 05:00N 67°18' E 014°23'0 0.0
2018-Aug-11 04:30N 67°18' E 014°23'0 0.0
2018-Aug-11 04:00N 67°18' E 014°23'0 0.0
2018-Aug-11 03:30N 67°18' E 014°23'0 0.0
2018-Aug-11 02:59N 67°18' E 014°23'0 0.0
2018-Aug-11 02:29N 67°18' E 014°23'0 0.0
2018-Aug-11 02:01N 67°18' E 014°23'0 0.0
2018-Aug-11 01:31N 67°18' E 014°23'0 0.0
2018-Aug-11 01:01N 67°18' E 014°23'0 0.0
2018-Aug-11 00:31N 67°18' E 014°23'0 0.0
2018-Aug-11 00:00N 67°18' E 014°23'0 0.0
2018-Aug-10 23:30N 67°18' E 014°23'0 0.0
2018-Aug-10 23:00N 67°18' E 014°23'0 0.0
2018-Aug-10 22:31N 67°18' E 014°23'0 0.0
2018-Aug-10 22:01N 67°18' E 014°23'0 0.0
2018-Aug-10 21:30N 67°18' E 014°23'0 0.0
2018-Aug-10 21:00N 67°18' E 014°23'0 0.0
2018-Aug-10 20:31N 67°18' E 014°23'0 0.0
2018-Aug-10 20:01N 67°18' E 014°23'0 0.0
2018-Aug-10 19:31N 67°18' E 014°23'0 0.0
2018-Aug-10 19:01N 67°18' E 014°23'0 0.0
2018-Aug-10 18:30N 67°18' E 014°23'0 0.0
2018-Aug-10 18:01N 67°18' E 014°23'0 0.0
2018-Aug-10 17:31N 67°18' E 014°23'0 0.0
2018-Aug-10 17:00N 67°18' E 014°23'0 0.0
2018-Aug-10 16:30N 67°18' E 014°23'0 0.0
2018-Aug-10 16:00N 67°18' E 014°23'0 0.0
2018-Aug-10 15:30N 67°18' E 014°23'0 0.0
2018-Aug-10 14:59N 67°18' E 014°23'2 4.3
2018-Aug-10 14:31N 67°17' E 014°19'4 7.2
2018-Aug-10 14:01N 67°15' E 014°11'4 7.8
2018-Aug-10 13:30N 67°11' E 014°06'4 8.1
2018-Aug-10 13:01N 67°08' E 014°01'4 8.1
2018-Aug-10 12:30N 67°04' E 013°54'4 8.1
2018-Aug-10 12:00N 67°02' E 013°47'4 7.9
2018-Aug-10 11:30N 66°60' E 013°38'4 7.5
2018-Aug-10 11:00N 66°58' E 013°30'4 7.3
2018-Aug-10 10:29N 66°54' E 013°27'4 7.9
2018-Aug-10 10:00N 66°51' E 013°20'4 8.0
2018-Aug-10 09:30N 66°48' E 013°15'4 8.4
2018-Aug-10 09:00N 66°44' E 013°11'4 8.2
2018-Aug-10 08:30N 66°40' E 013°07'4 7.7
2018-Aug-10 08:00N 66°36' E 013°05'4 7.2
2018-Aug-10 07:30N 66°33' E 013°02'4 7.0
2018-Aug-10 06:59N 66°30' E 012°59'4 8.1
2018-Aug-10 06:30N 66°26' E 012°59'4 8.1
2018-Aug-10 06:00N 66°22' E 012°58'4 8.0
2018-Aug-10 05:28N 66°18' E 012°56'4 8.2
2018-Aug-10 05:01N 66°14' E 012°53'4 7.2
2018-Aug-10 04:30N 66°10' E 012°50'3 6.8
2018-Aug-10 04:00N 66°10' E 012°58'4 8.2
2018-Aug-10 03:30N 66°11' E 013°08'2 4.6
2018-Aug-10 03:00N 66°11' E 013°14'0 0.0
2018-Aug-10 02:30N 66°11' E 013°14'0 0.0
2018-Aug-10 02:00N 66°11' E 013°14'2 4.1
2018-Aug-10 01:31N 66°11' E 013°09'4 8.5
2018-Aug-10 01:00N 66°10' E 012°59'4 7.3
2018-Aug-10 00:31N 66°10' E 012°50'4 8.9
2018-Aug-10 00:01N 66°14' E 012°54'4 8.6
2018-Aug-09 23:30N 66°19' E 012°57'4 8.6
2018-Aug-09 23:00N 66°23' E 012°58'4 8.4
2018-Aug-09 22:30N 66°27' E 012°59'4 8.3
2018-Aug-09 22:00N 66°31' E 012°58'4 7.3
2018-Aug-09 21:30N 66°34' E 013°05'4 8.4
2018-Aug-09 21:00N 66°38' E 013°06'4 8.5
2018-Aug-09 20:30N 66°42' E 013°10'4 7.2
2018-Aug-09 20:00N 66°44' E 013°16'4 7.9
2018-Aug-09 19:30N 66°45' E 013°26'2 4.6
2018-Aug-09 19:00N 66°45' E 013°32'0 0.0
2018-Aug-09 18:30N 66°45' E 013°32'0 0.0
2018-Aug-09 17:59N 66°45' E 013°32'0 0.0
2018-Aug-09 17:30N 66°45' E 013°32'0 0.0
2018-Aug-09 17:00N 66°45' E 013°32'0 0.0
2018-Aug-09 16:30N 66°45' E 013°32'0 0.0
2018-Aug-09 16:00N 66°45' E 013°32'0 0.0
2018-Aug-09 15:30N 66°45' E 013°32'0 0.0
2018-Aug-09 15:00N 66°45' E 013°32'0 0.0
2018-Aug-09 14:30N 66°45' E 013°32'0 0.0
2018-Aug-09 14:00N 66°45' E 013°32'0 0.0
2018-Aug-09 13:30N 66°45' E 013°32'0 0.0
2018-Aug-09 13:00N 66°45' E 013°32'0 0.0
2018-Aug-09 12:30N 66°45' E 013°32'0 0.0
2018-Aug-09 12:00N 66°45' E 013°32'0 0.0
2018-Aug-09 11:30N 66°45' E 013°32'0 0.0
2018-Aug-09 11:00N 66°45' E 013°32'0 0.0
2018-Aug-09 10:30N 66°45' E 013°32'0 0.0
2018-Aug-09 09:59N 66°45' E 013°32'0 0.0
2018-Aug-09 09:30N 66°45' E 013°32'0 0.0
2018-Aug-09 09:00N 66°45' E 013°32'0 0.0
2018-Aug-09 08:28N 66°45' E 013°32'0 0.0
2018-Aug-09 08:00N 66°45' E 013°32'0 0.0
2018-Aug-09 07:30N 66°45' E 013°32'0 0.0
2018-Aug-09 07:00N 66°45' E 013°32'0 0.0
2018-Aug-09 06:30N 66°45' E 013°32'0 0.0
2018-Aug-09 06:00N 66°45' E 013°32'0 0.0
2018-Aug-09 05:30N 66°45' E 013°32'0 0.0
2018-Aug-09 05:00N 66°45' E 013°32'0 0.0
2018-Aug-09 04:30N 66°45' E 013°32'0 0.0
2018-Aug-09 04:00N 66°45' E 013°32'0 0.0
2018-Aug-09 03:30N 66°45' E 013°32'0 0.0
2018-Aug-09 02:59N 66°45' E 013°32'0 0.0
2018-Aug-09 02:30N 66°45' E 013°32'1 1.2
2018-Aug-09 02:01N 66°45' E 013°31'4 7.9
2018-Aug-09 01:30N 66°45' E 013°21'3 5.7
2018-Aug-09 01:00N 66°46' E 013°14'4 8.2
2018-Aug-09 00:29N 66°50' E 013°17'4 8.1
2018-Aug-08 23:59N 66°53' E 013°24'4 7.6
2018-Aug-08 23:30N 66°56' E 013°29'4 7.6
2018-Aug-08 23:01N 66°59' E 013°35'4 8.2
2018-Aug-08 22:31N 67°01' E 013°44'4 8.0
2018-Aug-08 21:59N 67°04' E 013°53'4 8.0
2018-Aug-08 21:31N 67°07' E 013°59'4 7.5
2018-Aug-08 21:01N 67°10' E 014°03'4 7.5
2018-Aug-08 20:31N 67°12' E 014°11'4 7.9
2018-Aug-08 20:01N 67°14' E 014°21'4 7.8
2018-Aug-08 19:30N 67°15' E 014°30'4 7.7
2018-Aug-08 19:01N 67°17' E 014°39'2 3.4
2018-Aug-08 18:30N 67°18' E 014°42'0 0.0
2018-Aug-08 18:01N 67°18' E 014°42'0 0.0
2018-Aug-08 17:31N 67°18' E 014°42'0 0.0
2018-Aug-08 17:01N 67°18' E 014°42'0 0.0
2018-Aug-08 16:31N 67°18' E 014°42'0 0.0
2018-Aug-08 16:00N 67°18' E 014°42'0 0.0
2018-Aug-08 15:31N 67°18' E 014°42'0 0.0
2018-Aug-08 15:01N 67°18' E 014°42'0 0.0
2018-Aug-08 14:31N 67°18' E 014°42'0 0.0
2018-Aug-08 14:01N 67°18' E 014°42'0 0.0
2018-Aug-08 13:31N 67°18' E 014°42'0 0.0
2018-Aug-08 13:01N 67°18' E 014°42'0 0.0
2018-Aug-08 12:31N 67°18' E 014°42'0 0.0
2018-Aug-08 12:01N 67°18' E 014°42'0 0.0
2018-Aug-08 11:31N 67°18' E 014°42'0 0.0
2018-Aug-08 11:01N 67°18' E 014°42'0 0.0
2018-Aug-08 10:30N 67°18' E 014°42'0 0.0
2018-Aug-08 10:01N 67°18' E 014°42'0 0.0
2018-Aug-08 09:31N 67°18' E 014°42'0 0.0
2018-Aug-08 09:01N 67°18' E 014°42'0 0.0
2018-Aug-08 08:30N 67°18' E 014°42'0 0.2
2018-Aug-08 08:00N 67°18' E 014°42'3 6.3
2018-Aug-08 07:31N 67°16' E 014°36'4 7.6
2018-Aug-08 07:01N 67°15' E 014°27'4 7.3
2018-Aug-08 06:31N 67°13' E 014°18'4 7.4
2018-Aug-08 06:00N 67°12' E 014°09'4 7.5
2018-Aug-08 05:31N 67°09' E 014°02'4 8.0
2018-Aug-08 05:00N 67°06' E 013°57'4 7.6
2018-Aug-08 04:30N 67°03' E 013°51'4 7.7
2018-Aug-08 04:00N 67°01' E 013°42'4 7.7
2018-Aug-08 03:30N 66°59' E 013°34'3 6.9
2018-Aug-08 03:00N 66°56' E 013°29'4 7.4
2018-Aug-08 02:30N 66°53' E 013°23'4 7.7
2018-Aug-08 01:59N 66°50' E 013°16'4 7.5
2018-Aug-08 01:31N 66°47' E 013°14'4 7.9
2018-Aug-08 00:59N 66°43' E 013°11'4 8.0
2018-Aug-08 00:30N 66°39' E 013°07'4 8.1
2018-Aug-08 00:00N 66°35' E 013°05'4 7.4
2018-Aug-07 23:30N 66°32' E 012°59'4 8.1
2018-Aug-07 23:00N 66°28' E 012°59'4 8.2
2018-Aug-07 22:30N 66°24' E 012°59'4 8.5
2018-Aug-07 22:00N 66°20' E 012°57'4 8.2
2018-Aug-07 21:30N 66°16' E 012°55'4 8.1
2018-Aug-07 21:00N 66°12' E 012°52'4 8.1
2018-Aug-07 20:30N 66°08' E 012°48'4 8.0
2018-Aug-07 20:00N 66°05' E 012°42'4 8.2
2018-Aug-07 19:30N 66°02' E 012°37'0 0.3
2018-Aug-07 19:00N 66°02' E 012°37'4 8.1
2018-Aug-07 18:30N 65°59' E 012°29'4 8.7
2018-Aug-07 18:00N 65°55' E 012°24'5 9.0
2018-Aug-07 17:30N 65°51' E 012°22'4 8.7
2018-Aug-07 17:00N 65°47' E 012°20'4 7.8
2018-Aug-07 16:30N 65°43' E 012°17'4 7.9
2018-Aug-07 15:59N 65°39' E 012°15'4 7.9
2018-Aug-07 15:30N 65°35' E 012°14'4 7.7
2018-Aug-07 15:01N 65°31' E 012°12'3 6.4
2018-Aug-07 14:29N 65°28' E 012°12'0 1.0
2018-Aug-07 14:01N 65°28' E 012°12'0 0.1
2018-Aug-07 13:30N 65°28' E 012°11'0 0.0
2018-Aug-07 13:00N 65°28' E 012°11'0 0.0
2018-Aug-07 12:29N 65°28' E 012°11'0 0.0
2018-Aug-07 12:00N 65°28' E 012°11'0 0.0
2018-Aug-07 11:30N 65°28' E 012°11'0 0.0
2018-Aug-07 11:00N 65°28' E 012°11'0 0.0
2018-Aug-07 10:30N 65°28' E 012°11'0 0.0
2018-Aug-07 10:00N 65°28' E 012°11'0 0.0
2018-Aug-07 09:30N 65°28' E 012°11'0 0.0
2018-Aug-07 09:00N 65°28' E 012°11'0 0.0
2018-Aug-07 08:28N 65°28' E 012°11'0 0.0
2018-Aug-07 08:00N 65°28' E 012°11'0 0.0
2018-Aug-07 07:30N 65°28' E 012°11'0 0.0
2018-Aug-07 07:00N 65°28' E 012°11'0 0.0
2018-Aug-07 06:31N 65°28' E 012°11'0 0.0
2018-Aug-07 06:00N 65°28' E 012°11'0 0.0
2018-Aug-07 05:30N 65°28' E 012°11'0 0.0
2018-Aug-07 05:00N 65°28' E 012°11'0 0.0
2018-Aug-07 04:30N 65°28' E 012°11'0 0.0
2018-Aug-07 04:00N 65°28' E 012°11'0 0.0
2018-Aug-07 03:29N 65°28' E 012°11'0 0.0
2018-Aug-07 03:00N 65°28' E 012°11'0 0.0
2018-Aug-07 02:30N 65°28' E 012°11'0 0.0
2018-Aug-07 02:00N 65°28' E 012°11'0 0.0
2018-Aug-07 01:30N 65°28' E 012°11'0 0.0
2018-Aug-07 01:00N 65°28' E 012°11'0 0.0
2018-Aug-07 00:30N 65°28' E 012°11'0 0.0
2018-Aug-07 00:00N 65°28' E 012°11'0 0.0
2018-Aug-06 23:30N 65°28' E 012°11'0 0.0
2018-Aug-06 23:00N 65°28' E 012°11'0 0.0
2018-Aug-06 22:30N 65°28' E 012°11'0 0.0
2018-Aug-06 22:00N 65°28' E 012°11'0 0.0
2018-Aug-06 21:30N 65°28' E 012°11'0 0.0
2018-Aug-06 21:00N 65°28' E 012°11'0 0.0
2018-Aug-06 20:30N 65°28' E 012°11'0 0.0
2018-Aug-06 20:00N 65°28' E 012°11'0 0.0
2018-Aug-06 19:30N 65°28' E 012°11'0 0.0
2018-Aug-06 19:00N 65°28' E 012°11'0 0.0
2018-Aug-06 18:30N 65°28' E 012°11'0 0.0
2018-Aug-06 18:00N 65°28' E 012°11'0 0.0
2018-Aug-06 17:30N 65°28' E 012°11'0 0.0
2018-Aug-06 17:00N 65°28' E 012°11'0 0.0
2018-Aug-06 16:30N 65°28' E 012°11'0 0.0
2018-Aug-06 16:00N 65°28' E 012°11'0 0.0
2018-Aug-06 15:30N 65°28' E 012°11'0 0.0
2018-Aug-06 15:00N 65°28' E 012°11'0 0.0
2018-Aug-06 14:30N 65°28' E 012°11'0 0.0
2018-Aug-06 13:59N 65°28' E 012°11'0 0.0
2018-Aug-06 13:30N 65°28' E 012°11'0 0.0
2018-Aug-06 13:00N 65°28' E 012°11'0 0.0
2018-Aug-06 12:30N 65°28' E 012°11'0 0.0
2018-Aug-06 12:00N 65°28' E 012°11'0 0.0
2018-Aug-06 11:30N 65°28' E 012°11'0 0.0
2018-Aug-06 11:00N 65°28' E 012°11'0 0.0
2018-Aug-06 10:30N 65°28' E 012°11'0 0.0
2018-Aug-06 09:59N 65°28' E 012°11'0 0.0
2018-Aug-06 09:30N 65°28' E 012°11'0 0.0
2018-Aug-06 09:00N 65°28' E 012°11'0 0.0
2018-Aug-06 08:29N 65°28' E 012°11'0 0.0
2018-Aug-06 08:00N 65°28' E 012°11'0 0.0
2018-Aug-06 07:30N 65°28' E 012°11'0 0.0
2018-Aug-06 07:00N 65°28' E 012°11'0 0.0
2018-Aug-06 06:30N 65°28' E 012°11'0 0.0
2018-Aug-06 06:01N 65°28' E 012°11'0 0.0
2018-Aug-06 05:30N 65°28' E 012°11'0 0.0
2018-Aug-06 05:00N 65°28' E 012°11'0 0.0
2018-Aug-06 04:30N 65°28' E 012°11'0 0.0
2018-Aug-06 04:00N 65°28' E 012°11'0 0.0
2018-Aug-06 03:29N 65°28' E 012°11'0 0.0
2018-Aug-06 03:00N 65°28' E 012°11'0 0.0
2018-Aug-06 02:30N 65°28' E 012°11'0 0.0
2018-Aug-06 02:00N 65°28' E 012°11'0 0.0
2018-Aug-06 01:30N 65°28' E 012°11'0 0.0
2018-Aug-06 01:00N 65°28' E 012°11'0 0.0
2018-Aug-06 00:30N 65°28' E 012°11'0 0.0
2018-Aug-06 00:00N 65°28' E 012°11'0 0.0
2018-Aug-05 23:30N 65°28' E 012°11'0 0.0
2018-Aug-05 23:00N 65°28' E 012°11'0 0.0
2018-Aug-05 22:30N 65°28' E 012°11'0 0.0
2018-Aug-05 21:59N 65°28' E 012°11'0 0.0
2018-Aug-05 21:30N 65°28' E 012°11'0 0.0
2018-Aug-05 21:00N 65°28' E 012°11'0 0.0
2018-Aug-05 20:30N 65°28' E 012°11'0 0.0
2018-Aug-05 20:00N 65°28' E 012°11'0 0.0
2018-Aug-05 19:30N 65°28' E 012°11'0 0.0
2018-Aug-05 19:01N 65°28' E 012°11'0 0.0
2018-Aug-05 18:30N 65°28' E 012°11'0 0.0
2018-Aug-05 18:00N 65°28' E 012°11'0 0.0
2018-Aug-05 17:30N 65°28' E 012°11'0 0.0
2018-Aug-05 17:00N 65°28' E 012°11'0 0.0
2018-Aug-05 16:30N 65°28' E 012°11'0 0.0
2018-Aug-05 16:00N 65°28' E 012°11'0 0.0
2018-Aug-05 15:30N 65°28' E 012°11'0 0.0
2018-Aug-05 14:58N 65°28' E 012°11'0 0.0
2018-Aug-05 14:30N 65°28' E 012°11'0 0.0
2018-Aug-05 13:30N 65°28' E 012°11'0 0.0
2018-Aug-05 13:00N 65°28' E 012°11'0 0.0
2018-Aug-05 12:29N 65°28' E 012°11'0 0.0
2018-Aug-05 12:00N 65°28' E 012°11'0 0.0
2018-Aug-05 11:29N 65°28' E 012°11'0 0.0
2018-Aug-05 11:00N 65°28' E 012°11'0 0.0
2018-Aug-05 10:30N 65°28' E 012°11'0 0.0
2018-Aug-05 10:00N 65°28' E 012°11'0 0.0
2018-Aug-05 09:30N 65°28' E 012°11'0 0.0
2018-Aug-05 09:00N 65°28' E 012°11'0 0.0
2018-Aug-05 08:30N 65°28' E 012°11'0 0.0
2018-Aug-05 07:59N 65°28' E 012°11'0 0.0
2018-Aug-05 07:30N 65°28' E 012°11'0 0.0
2018-Aug-05 07:00N 65°28' E 012°11'0 0.0
2018-Aug-05 06:30N 65°28' E 012°11'0 0.0
2018-Aug-05 06:00N 65°28' E 012°11'0 0.0
2018-Aug-05 05:30N 65°28' E 012°11'0 0.0
2018-Aug-05 05:00N 65°28' E 012°11'0 0.0
2018-Aug-05 04:30N 65°28' E 012°11'0 0.0
2018-Aug-05 04:00N 65°28' E 012°11'0 0.0
2018-Aug-05 03:29N 65°28' E 012°11'0 0.0
2018-Aug-05 03:00N 65°28' E 012°11'  
Track history (hours):
 
Tides and Currents Weather Stations Pressure Air Temp Water Temp Dewpoint Dewpoint Depression Visibility Wind Speed Wind Dir Waves Ship Positions

Basen

Last reported at 2018-Aug-15 02:30 UTC. Time now 2018-Aug-15 03:00 UTC.
Position N 63°22' E 007°47'.

Length 47 m.

Type: Cargo ship. MMSI: 257062400.

Date/timePositionNaut miles runAvg speedWind from/ knotsBaromVisibWave heightAir tempDewpointWater temp
2018-Aug-15 02:30N 63°22' E 007°47'2 4.3
2018-Aug-15 02:00N 63°21' E 007°42'2 5.0
2018-Aug-15 01:30N 63°23' E 007°42'3 6.2
2018-Aug-15 01:00N 63°25' E 007°48'3 6.1
2018-Aug-15 00:29N 63°28' E 007°51'3 6.1
2018-Aug-15 00:00N 63°31' E 007°54'3 5.8
2018-Aug-14 23:30N 63°33' E 007°58'3 5.9
2018-Aug-14 23:00N 63°34' E 008°04'3 6.0
2018-Aug-14 22:30N 63°36' E 008°10'3 6.1
2018-Aug-14 22:00N 63°37' E 008°16'3 6.0
2018-Aug-14 21:30N 63°38' E 008°23'3 6.0
2018-Aug-14 20:59N 63°39' E 008°29'3 6.3
2018-Aug-14 20:30N 63°39' E 008°36'3 5.8
2018-Aug-14 20:00N 63°40' E 008°42'3 6.4
2018-Aug-14 19:30N 63°41' E 008°50'4 8.9
2018-Aug-14 19:01N 63°43' E 008°57'4 8.6
2018-Aug-14 18:30N 63°47' E 009°03'4 8.5
2018-Aug-14 18:00N 63°50' E 009°09'5 8.7
2018-Aug-14 17:29N 63°54' E 009°16'4 8.9
2018-Aug-14 17:00N 63°57' E 009°21'5 8.9
2018-Aug-14 16:30N 64°01' E 009°27'4 8.9
2018-Aug-14 16:00N 64°04' E 009°33'5 9.0
2018-Aug-14 15:30N 64°08' E 009°39'5 9.1
2018-Aug-14 15:00N 64°12' E 009°45'5 9.1
2018-Aug-14 14:29N 64°15' E 009°52'5 9.2
2018-Aug-14 14:00N 64°19' E 009°59'4 8.9
2018-Aug-14 13:30N 64°22' E 010°06'4 8.9
2018-Aug-14 13:00N 64°25' E 010°13'5 8.9
2018-Aug-14 12:29N 64°29' E 010°20'4 9.0
2018-Aug-14 12:00N 64°32' E 010°27'5 8.9
2018-Aug-14 11:29N 64°35' E 010°35'4 8.9
2018-Aug-14 10:59N 64°38' E 010°42'4 9.1
2018-Aug-14 10:30N 64°41' E 010°49'4 8.4
2018-Aug-14 09:59N 64°44' E 010°57'4 8.3
2018-Aug-14 09:30N 64°47' E 011°04'5 8.9
2018-Aug-14 09:00N 64°50' E 011°11'4 7.4
2018-Aug-14 08:30N 64°53' E 011°17'4 8.8
2018-Aug-14 08:00N 64°56' E 011°25'5 9.2
2018-Aug-14 07:30N 64°58' E 011°34'4 8.5
2018-Aug-14 07:01N 65°01' E 011°41'4 8.8
2018-Aug-14 06:30N 65°05' E 011°47'4 8.9
2018-Aug-14 06:00N 65°09' E 011°50'4 8.8
2018-Aug-14 05:30N 65°13' E 011°54'5 9.0
2018-Aug-14 05:00N 65°17' E 011°58'4 9.0
2018-Aug-14 04:30N 65°21' E 012°03'5 9.2
2018-Aug-14 04:00N 65°25' E 012°09'3 5.3
2018-Aug-14 03:29N 65°28' E 012°12'0 0.1
2018-Aug-14 03:00N 65°28' E 012°11'0 0.0
2018-Aug-14 02:30N 65°28' E 012°11'0 0.0
2018-Aug-14 02:00N 65°28' E 012°11'0 0.0
2018-Aug-14 01:29N 65°28' E 012°11'0 0.0
2018-Aug-14 00:59N 65°28' E 012°11'0 0.9
2018-Aug-14 00:29N 65°28' E 012°12'3 6.4
2018-Aug-14 00:01N 65°31' E 012°12'4 8.0
2018-Aug-13 23:30N 65°35' E 012°12'4 8.2
2018-Aug-13 23:01N 65°39' E 012°12'3 5.0
2018-Aug-13 22:30N 65°42' E 012°11'0 0.0
2018-Aug-13 22:00N 65°42' E 012°11'1 2.1
2018-Aug-13 21:30N 65°43' E 012°11'4 8.7
2018-Aug-13 21:00N 65°47' E 012°10'4 8.9
2018-Aug-13 20:30N 65°52' E 012°11'5 9.1
2018-Aug-13 20:00N 65°56' E 012°11'5 8.7
2018-Aug-13 19:29N 66°00' E 012°07'4 8.7
2018-Aug-13 19:00N 66°04' E 012°11'5 8.8
2018-Aug-13 18:28N 66°08' E 012°17'2 5.0
2018-Aug-13 18:01N 66°10' E 012°19'0 0.0
2018-Aug-13 17:31N 66°10' E 012°19'0 0.0
2018-Aug-13 17:00N 66°10' E 012°19'0 0.0
2018-Aug-13 16:29N 66°10' E 012°19'0 0.0
2018-Aug-13 15:59N 66°10' E 012°19'0 0.0
2018-Aug-13 15:30N 66°10' E 012°19'0 0.0
2018-Aug-13 15:00N 66°10' E 012°19'0 0.0
2018-Aug-13 14:30N 66°10' E 012°19'2 4.9
2018-Aug-13 14:00N 66°08' E 012°16'4 8.7
2018-Aug-13 13:30N 66°04' E 012°11'4 8.4
2018-Aug-13 13:00N 66°01' E 012°07'4 8.6
2018-Aug-13 12:30N 65°57' E 012°11'4 8.8
2018-Aug-13 12:00N 65°52' E 012°11'4 8.8
2018-Aug-13 11:30N 65°48' E 012°11'5 8.9
2018-Aug-13 11:00N 65°43' E 012°12'4 8.4
2018-Aug-13 10:30N 65°39' E 012°12'4 8.5
2018-Aug-13 09:59N 65°35' E 012°12'4 8.4
2018-Aug-13 09:30N 65°31' E 012°12'3 5.9
2018-Aug-13 09:00N 65°28' E 012°12'0 0.1
2018-Aug-13 08:30N 65°28' E 012°11'0 0.0
2018-Aug-13 07:59N 65°28' E 012°11'0 0.0
2018-Aug-13 07:29N 65°28' E 012°11'0 0.0
2018-Aug-13 07:00N 65°28' E 012°11'0 0.0
2018-Aug-13 06:30N 65°28' E 012°11'0 0.0
2018-Aug-13 06:00N 65°28' E 012°11'0 0.0
2018-Aug-13 05:30N 65°28' E 012°11'0 0.0
2018-Aug-13 05:00N 65°28' E 012°11'0 0.0
2018-Aug-13 04:31N 65°28' E 012°11'0 0.0
2018-Aug-13 04:01N 65°28' E 012°11'0 0.0
2018-Aug-13 03:28N 65°28' E 012°11'0 0.0
2018-Aug-13 03:00N 65°28' E 012°11'0 0.0
2018-Aug-13 02:30N 65°28' E 012°11'0 0.0
2018-Aug-13 02:00N 65°28' E 012°11'0 0.0
2018-Aug-13 01:30N 65°28' E 012°11'0 0.0
2018-Aug-13 01:00N 65°28' E 012°11'0 0.0
2018-Aug-13 00:29N 65°28' E 012°11'0 0.0
2018-Aug-13 00:01N 65°28' E 012°11'0 0.0
2018-Aug-12 23:30N 65°28' E 012°11'0 0.0
2018-Aug-12 23:00N 65°28' E 012°11'0 0.0
2018-Aug-12 22:29N 65°28' E 012°11'0 0.0
2018-Aug-12 22:00N 65°28' E 012°11'0 0.0
2018-Aug-12 21:29N 65°28' E 012°11'0 0.0
2018-Aug-12 21:00N 65°28' E 012°11'0 0.0
2018-Aug-12 20:29N 65°28' E 012°11'0 0.0
2018-Aug-12 20:00N 65°28' E 012°11'0 0.0
2018-Aug-12 19:30N 65°28' E 012°11'0 0.7
2018-Aug-12 19:00N 65°28' E 012°12'4 7.6
2018-Aug-12 18:30N 65°32' E 012°12'4 8.9
2018-Aug-12 18:00N 65°36' E 012°14'5 9.1
2018-Aug-12 17:30N 65°41' E 012°16'5 9.1
2018-Aug-12 17:00N 65°45' E 012°19'5 9.2
2018-Aug-12 16:30N 65°50' E 012°22'5 9.4
2018-Aug-12 16:00N 65°54' E 012°22'5 9.0
2018-Aug-12 15:29N 65°58' E 012°28'4 8.8
2018-Aug-12 15:00N 66°02' E 012°34'4 8.7
2018-Aug-12 14:30N 66°05' E 012°41'4 8.7
2018-Aug-12 14:01N 66°08' E 012°48'4 8.8
2018-Aug-12 13:31N 66°12' E 012°52'5 9.0
2018-Aug-12 13:00N 66°17' E 012°55'5 9.2
2018-Aug-12 12:30N 66°21' E 012°57'4 8.9
2018-Aug-12 12:00N 66°26' E 012°59'4 8.7
2018-Aug-12 11:30N 66°30' E 012°59'4 7.6
2018-Aug-12 11:00N 66°33' E 013°03'4 8.3
2018-Aug-12 10:29N 66°38' E 013°05'4 8.9
2018-Aug-12 10:00N 66°42' E 013°09'4 8.4
2018-Aug-12 09:30N 66°45' E 013°13'4 8.5
2018-Aug-12 09:00N 66°50' E 013°16'4 8.1
2018-Aug-12 08:29N 66°53' E 013°23'4 7.9
2018-Aug-12 08:00N 66°56' E 013°29'3 5.5
2018-Aug-12 07:31N 66°58' E 013°33'3 6.7
2018-Aug-12 07:00N 66°59' E 013°41'3 5.8
2018-Aug-12 06:30N 67°01' E 013°46'3 5.7
2018-Aug-12 06:00N 67°03' E 013°52'3 6.2
2018-Aug-12 05:30N 67°05' E 013°57'3 6.3
2018-Aug-12 05:00N 67°08' E 014°01'3 6.2
2018-Aug-12 04:31N 67°11' E 014°05'3 5.4
2018-Aug-12 04:00N 67°13' E 014°08'3 6.0
2018-Aug-12 03:30N 67°16' E 014°12'3 6.2
2018-Aug-12 03:01N 67°17' E 014°20'2 3.3
2018-Aug-12 02:30N 67°18' E 014°23'0 0.0
2018-Aug-12 02:01N 67°18' E 014°23'0 0.0
2018-Aug-12 01:31N 67°18' E 014°23'0 0.0
2018-Aug-12 01:01N 67°18' E 014°23'0 0.0
2018-Aug-12 00:30N 67°18' E 014°23'0 0.0
2018-Aug-12 00:00N 67°18' E 014°23'0 0.0
2018-Aug-11 23:31N 67°18' E 014°23'0 0.0
2018-Aug-11 22:59N 67°18' E 014°23'0 0.0
2018-Aug-11 22:30N 67°18' E 014°23'0 0.0
2018-Aug-11 21:59N 67°18' E 014°23'0 0.0
2018-Aug-11 21:31N 67°18' E 014°23'0 0.0
2018-Aug-11 20:59N 67°18' E 014°23'0 0.0
2018-Aug-11 20:30N 67°18' E 014°23'0 0.0
2018-Aug-11 20:01N 67°18' E 014°23'0 0.0
2018-Aug-11 19:31N 67°18' E 014°23'0 0.0
2018-Aug-11 19:00N 67°18' E 014°23'0 0.0
2018-Aug-11 18:31N 67°18' E 014°23'0 0.0
2018-Aug-11 18:00N 67°18' E 014°23'0 0.0
2018-Aug-11 17:30N 67°18' E 014°23'0 0.0
2018-Aug-11 17:01N 67°18' E 014°23'0 0.0
2018-Aug-11 16:31N 67°18' E 014°23'0 0.0
2018-Aug-11 16:00N 67°18' E 014°23'0 0.0
2018-Aug-11 15:31N 67°18' E 014°23'0 0.0
2018-Aug-11 15:00N 67°18' E 014°23'0 0.0
2018-Aug-11 14:30N 67°18' E 014°23'0 0.0
2018-Aug-11 14:00N 67°18' E 014°23'0 0.0
2018-Aug-11 13:30N 67°18' E 014°23'0 0.0
2018-Aug-11 13:00N 67°18' E 014°23'0 0.0
2018-Aug-11 12:31N 67°18' E 014°23'0 0.0
2018-Aug-11 12:00N 67°18' E 014°23'0 0.0
2018-Aug-11 11:31N 67°18' E 014°23'0 0.0
2018-Aug-11 11:00N 67°18' E 014°23'0 0.0
2018-Aug-11 10:30N 67°18' E 014°23'0 0.0
2018-Aug-11 10:01N 67°18' E 014°23'0 0.0
2018-Aug-11 09:30N 67°18' E 014°23'0 0.0
2018-Aug-11 09:00N 67°18' E 014°23'0 0.0
2018-Aug-11 08:31N 67°18' E 014°23'0 0.0
2018-Aug-11 08:01N 67°18' E 014°23'0 0.0
2018-Aug-11 07:30N 67°18' E 014°23'0 0.0
2018-Aug-11 07:01N 67°18' E 014°23'0 0.0
2018-Aug-11 06:30N 67°18' E 014°23'0 0.0
2018-Aug-11 06:00N 67°18' E 014°23'0 0.0
2018-Aug-11 05:30N 67°18' E 014°23'0 0.0
2018-Aug-11 05:00N 67°18' E 014°23'0 0.0
2018-Aug-11 04:30N 67°18' E 014°23'0 0.0
2018-Aug-11 04:00N 67°18' E 014°23'0 0.0
2018-Aug-11 03:30N 67°18' E 014°23'0 0.0
2018-Aug-11 02:59N 67°18' E 014°23'0 0.0
2018-Aug-11 02:29N 67°18' E 014°23'0 0.0
2018-Aug-11 02:01N 67°18' E 014°23'0 0.0
2018-Aug-11 01:31N 67°18' E 014°23'0 0.0
2018-Aug-11 01:01N 67°18' E 014°23'0 0.0
2018-Aug-11 00:31N 67°18' E 014°23'0 0.0
2018-Aug-11 00:00N 67°18' E 014°23'0 0.0
2018-Aug-10 23:30N 67°18' E 014°23'0 0.0
2018-Aug-10 23:00N 67°18' E 014°23'0 0.0
2018-Aug-10 22:31N 67°18' E 014°23'0 0.0
2018-Aug-10 22:01N 67°18' E 014°23'0 0.0
2018-Aug-10 21:30N 67°18' E 014°23'0 0.0
2018-Aug-10 21:00N 67°18' E 014°23'0 0.0
2018-Aug-10 20:31N 67°18' E 014°23'0 0.0
2018-Aug-10 20:01N 67°18' E 014°23'0 0.0
2018-Aug-10 19:31N 67°18' E 014°23'0 0.0
2018-Aug-10 19:01N 67°18' E 014°23'0 0.0
2018-Aug-10 18:30N 67°18' E 014°23'0 0.0
2018-Aug-10 18:01N 67°18' E 014°23'0 0.0
2018-Aug-10 17:31N 67°18' E 014°23'0 0.0
2018-Aug-10 17:00N 67°18' E 014°23'0 0.0
2018-Aug-10 16:30N 67°18' E 014°23'0 0.0
2018-Aug-10 16:00N 67°18' E 014°23'0 0.0
2018-Aug-10 15:30N 67°18' E 014°23'0 0.0
2018-Aug-10 14:59N 67°18' E 014°23'2 4.3
2018-Aug-10 14:31N 67°17' E 014°19'4 7.2
2018-Aug-10 14:01N 67°15' E 014°11'4 7.8
2018-Aug-10 13:30N 67°11' E 014°06'4 8.1
2018-Aug-10 13:01N 67°08' E 014°01'4 8.1
2018-Aug-10 12:30N 67°04' E 013°54'4 8.1
2018-Aug-10 12:00N 67°02' E 013°47'4 7.9
2018-Aug-10 11:30N 66°60' E 013°38'4 7.5
2018-Aug-10 11:00N 66°58' E 013°30'4 7.3
2018-Aug-10 10:29N 66°54' E 013°27'4 7.9
2018-Aug-10 10:00N 66°51' E 013°20'4 8.0
2018-Aug-10 09:30N 66°48' E 013°15'4 8.4
2018-Aug-10 09:00N 66°44' E 013°11'4 8.2
2018-Aug-10 08:30N 66°40' E 013°07'4 7.7
2018-Aug-10 08:00N 66°36' E 013°05'4 7.2
2018-Aug-10 07:30N 66°33' E 013°02'4 7.0
2018-Aug-10 06:59N 66°30' E 012°59'4 8.1
2018-Aug-10 06:30N 66°26' E 012°59'4 8.1
2018-Aug-10 06:00N 66°22' E 012°58'4 8.0
2018-Aug-10 05:28N 66°18' E 012°56'4 8.2
2018-Aug-10 05:01N 66°14' E 012°53'4 7.2
2018-Aug-10 04:30N 66°10' E 012°50'3 6.8
2018-Aug-10 04:00N 66°10' E 012°58'4 8.2
2018-Aug-10 03:30N 66°11' E 013°08'2 4.6
2018-Aug-10 03:00N 66°11' E 013°14'0 0.0
2018-Aug-10 02:30N 66°11' E 013°14'0 0.0
2018-Aug-10 02:00N 66°11' E 013°14'2 4.1
2018-Aug-10 01:31N 66°11' E 013°09'4 8.5
2018-Aug-10 01:00N 66°10' E 012°59'4 7.3
2018-Aug-10 00:31N 66°10' E 012°50'4 8.9
2018-Aug-10 00:01N 66°14' E 012°54'4 8.6
2018-Aug-09 23:30N 66°19' E 012°57'4 8.6
2018-Aug-09 23:00N 66°23' E 012°58'4 8.4
2018-Aug-09 22:30N 66°27' E 012°59'4 8.3
2018-Aug-09 22:00N 66°31' E 012°58'4 7.3
2018-Aug-09 21:30N 66°34' E 013°05'4 8.4
2018-Aug-09 21:00N 66°38' E 013°06'4 8.5
2018-Aug-09 20:30N 66°42' E 013°10'4 7.2
2018-Aug-09 20:00N 66°44' E 013°16'4 7.9
2018-Aug-09 19:30N 66°45' E 013°26'2 4.6
2018-Aug-09 19:00N 66°45' E 013°32'0 0.0
2018-Aug-09 18:30N 66°45' E 013°32'0 0.0
2018-Aug-09 17:59N 66°45' E 013°32'0 0.0
2018-Aug-09 17:30N 66°45' E 013°32'0 0.0
2018-Aug-09 17:00N 66°45' E 013°32'0 0.0
2018-Aug-09 16:30N 66°45' E 013°32'0 0.0
2018-Aug-09 16:00N 66°45' E 013°32'0 0.0
2018-Aug-09 15:30N 66°45' E 013°32'0 0.0
2018-Aug-09 15:00N 66°45' E 013°32'0 0.0
2018-Aug-09 14:30N 66°45' E 013°32'0 0.0
2018-Aug-09 14:00N 66°45' E 013°32'0 0.0
2018-Aug-09 13:30N 66°45' E 013°32'0 0.0
2018-Aug-09 13:00N 66°45' E 013°32'0 0.0
2018-Aug-09 12:30N 66°45' E 013°32'0 0.0
2018-Aug-09 12:00N 66°45' E 013°32'0 0.0
2018-Aug-09 11:30N 66°45' E 013°32'0 0.0
2018-Aug-09 11:00N 66°45' E 013°32'0 0.0
2018-Aug-09 10:30N 66°45' E 013°32'0 0.0
2018-Aug-09 09:59N 66°45' E 013°32'0 0.0
2018-Aug-09 09:30N 66°45' E 013°32'0 0.0
2018-Aug-09 09:00N 66°45' E 013°32'0 0.0
2018-Aug-09 08:28N 66°45' E 013°32'0 0.0
2018-Aug-09 08:00N 66°45' E 013°32'0 0.0
2018-Aug-09 07:30N 66°45' E 013°32'0 0.0
2018-Aug-09 07:00N 66°45' E 013°32'0 0.0
2018-Aug-09 06:30N 66°45' E 013°32'0 0.0
2018-Aug-09 06:00N 66°45' E 013°32'0 0.0
2018-Aug-09 05:30N 66°45' E 013°32'0 0.0
2018-Aug-09 05:00N 66°45' E 013°32'0 0.0
2018-Aug-09 04:30N 66°45' E 013°32'0 0.0
2018-Aug-09 04:00N 66°45' E 013°32'0 0.0
2018-Aug-09 03:30N 66°45' E 013°32'0 0.0
2018-Aug-09 02:59N 66°45' E 013°32'0 0.0
2018-Aug-09 02:30N 66°45' E 013°32'1 1.2
2018-Aug-09 02:01N 66°45' E 013°31'4 7.9
2018-Aug-09 01:30N 66°45' E 013°21'3 5.7
2018-Aug-09 01:00N 66°46' E 013°14'4 8.2
2018-Aug-09 00:29N 66°50' E 013°17'4 8.1
2018-Aug-08 23:59N 66°53' E 013°24'4 7.6
2018-Aug-08 23:30N 66°56' E 013°29'4 7.6
2018-Aug-08 23:01N 66°59' E 013°35'4 8.2
2018-Aug-08 22:31N 67°01' E 013°44'4 8.0
2018-Aug-08 21:59N 67°04' E 013°53'4 8.0
2018-Aug-08 21:31N 67°07' E 013°59'4 7.5
2018-Aug-08 21:01N 67°10' E 014°03'4 7.5
2018-Aug-08 20:31N 67°12' E 014°11'4 7.9
2018-Aug-08 20:01N 67°14' E 014°21'4 7.8
2018-Aug-08 19:30N 67°15' E 014°30'4 7.7
2018-Aug-08 19:01N 67°17' E 014°39'2 3.4
2018-Aug-08 18:30N 67°18' E 014°42'0 0.0
2018-Aug-08 18:01N 67°18' E 014°42'0 0.0
2018-Aug-08 17:31N 67°18' E 014°42'0 0.0
2018-Aug-08 17:01N 67°18' E 014°42'0 0.0
2018-Aug-08 16:31N 67°18' E 014°42'0 0.0
2018-Aug-08 16:00N 67°18' E 014°42'0 0.0
2018-Aug-08 15:31N 67°18' E 014°42'0 0.0
2018-Aug-08 15:01N 67°18' E 014°42'0 0.0
2018-Aug-08 14:31N 67°18' E 014°42'0 0.0
2018-Aug-08 14:01N 67°18' E 014°42'0 0.0
2018-Aug-08 13:31N 67°18' E 014°42'0 0.0
2018-Aug-08 13:01N 67°18' E 014°42'0 0.0
2018-Aug-08 12:31N 67°18' E 014°42'0 0.0
2018-Aug-08 12:01N 67°18' E 014°42'0 0.0
2018-Aug-08 11:31N 67°18' E 014°42'0 0.0
2018-Aug-08 11:01N 67°18' E 014°42'0 0.0
2018-Aug-08 10:30N 67°18' E 014°42'0 0.0
2018-Aug-08 10:01N 67°18' E 014°42'0 0.0
2018-Aug-08 09:31N 67°18' E 014°42'0 0.0
2018-Aug-08 09:01N 67°18' E 014°42'0 0.0
2018-Aug-08 08:30N 67°18' E 014°42'0 0.2
2018-Aug-08 08:00N 67°18' E 014°42'3 6.3
2018-Aug-08 07:31N 67°16' E 014°36'4 7.6
2018-Aug-08 07:01N 67°15' E 014°27'4 7.3
2018-Aug-08 06:31N 67°13' E 014°18'4 7.4
2018-Aug-08 06:00N 67°12' E 014°09'4 7.5
2018-Aug-08 05:31N 67°09' E 014°02'4 8.0
2018-Aug-08 05:00N 67°06' E 013°57'4 7.6
2018-Aug-08 04:30N 67°03' E 013°51'4 7.7
2018-Aug-08 04:00N 67°01' E 013°42'4 7.7
2018-Aug-08 03:30N 66°59' E 013°34'3 6.9
2018-Aug-08 03:00N 66°56' E 013°29'4 7.4
2018-Aug-08 02:30N 66°53' E 013°23'4 7.7
2018-Aug-08 01:59N 66°50' E 013°16'4 7.5
2018-Aug-08 01:31N 66°47' E 013°14'4 7.9
2018-Aug-08 00:59N 66°43' E 013°11'4 8.0
2018-Aug-08 00:30N 66°39' E 013°07'4 8.1
2018-Aug-08 00:00N 66°35' E 013°05'4 7.4
2018-Aug-07 23:30N 66°32' E 012°59'4 8.1
2018-Aug-07 23:00N 66°28' E 012°59'4 8.2
2018-Aug-07 22:30N 66°24' E 012°59'4 8.5
2018-Aug-07 22:00N 66°20' E 012°57'4 8.2
2018-Aug-07 21:30N 66°16' E 012°55'4 8.1
2018-Aug-07 21:00N 66°12' E 012°52'4 8.1
2018-Aug-07 20:30N 66°08' E 012°48'4 8.0
2018-Aug-07 20:00N 66°05' E 012°42'4 8.2
2018-Aug-07 19:30N 66°02' E 012°37'0 0.3
2018-Aug-07 19:00N 66°02' E 012°37'4 8.1
2018-Aug-07 18:30N 65°59' E 012°29'4 8.7
2018-Aug-07 18:00N 65°55' E 012°24'5 9.0
2018-Aug-07 17:30N 65°51' E 012°22'4 8.7
2018-Aug-07 17:00N 65°47' E 012°20'4 7.8
2018-Aug-07 16:30N 65°43' E 012°17'4 7.9
2018-Aug-07 15:59N 65°39' E 012°15'4 7.9
2018-Aug-07 15:30N 65°35' E 012°14'4 7.7
2018-Aug-07 15:01N 65°31' E 012°12'3 6.4
2018-Aug-07 14:29N 65°28' E 012°12'0 1.0
2018-Aug-07 14:01N 65°28' E 012°12'0 0.1
2018-Aug-07 13:30N 65°28' E 012°11'0 0.0
2018-Aug-07 13:00N 65°28' E 012°11'0 0.0
2018-Aug-07 12:29N 65°28' E 012°11'0 0.0
2018-Aug-07 12:00N 65°28' E 012°11'0 0.0
2018-Aug-07 11:30N 65°28' E 012°11'0 0.0
2018-Aug-07 11:00N 65°28' E 012°11'0 0.0
2018-Aug-07 10:30N 65°28' E 012°11'0 0.0
2018-Aug-07 10:00N 65°28' E 012°11'0 0.0
2018-Aug-07 09:30N 65°28' E 012°11'0 0.0
2018-Aug-07 09:00N 65°28' E 012°11'0 0.0
2018-Aug-07 08:28N 65°28' E 012°11'0 0.0
2018-Aug-07 08:00N 65°28' E 012°11'0 0.0
2018-Aug-07 07:30N 65°28' E 012°11'0 0.0
2018-Aug-07 07:00N 65°28' E 012°11'0 0.0
2018-Aug-07 06:31N 65°28' E 012°11'0 0.0
2018-Aug-07 06:00N 65°28' E 012°11'0 0.0
2018-Aug-07 05:30N 65°28' E 012°11'0 0.0
2018-Aug-07 05:00N 65°28' E 012°11'0 0.0
2018-Aug-07 04:30N 65°28' E 012°11'0 0.0
2018-Aug-07 04:00N 65°28' E 012°11'0 0.0
2018-Aug-07 03:29N 65°28' E 012°11'0 0.0
2018-Aug-07 03:00N 65°28' E 012°11'0 0.0
2018-Aug-07 02:30N 65°28' E 012°11'0 0.0
2018-Aug-07 02:00N 65°28' E 012°11'0 0.0
2018-Aug-07 01:30N 65°28' E 012°11'0 0.0
2018-Aug-07 01:00N 65°28' E 012°11'0 0.0
2018-Aug-07 00:30N 65°28' E 012°11'0 0.0
2018-Aug-07 00:00N 65°28' E 012°11'0 0.0
2018-Aug-06 23:30N 65°28' E 012°11'0 0.0
2018-Aug-06 23:00N 65°28' E 012°11'0 0.0
2018-Aug-06 22:30N 65°28' E 012°11'0 0.0
2018-Aug-06 22:00N 65°28' E 012°11'0 0.0
2018-Aug-06 21:30N 65°28' E 012°11'0 0.0
2018-Aug-06 21:00N 65°28' E 012°11'0 0.0
2018-Aug-06 20:30N 65°28' E 012°11'0 0.0
2018-Aug-06 20:00N 65°28' E 012°11'0 0.0
2018-Aug-06 19:30N 65°28' E 012°11'0 0.0
2018-Aug-06 19:00N 65°28' E 012°11'0 0.0
2018-Aug-06 18:30N 65°28' E 012°11'0 0.0
2018-Aug-06 18:00N 65°28' E 012°11'0 0.0
2018-Aug-06 17:30N 65°28' E 012°11'0 0.0
2018-Aug-06 17:00N 65°28' E 012°11'0 0.0
2018-Aug-06 16:30N 65°28' E 012°11'0 0.0
2018-Aug-06 16:00N 65°28' E 012°11'0 0.0
2018-Aug-06 15:30N 65°28' E 012°11'0 0.0
2018-Aug-06 15:00N 65°28' E 012°11'0 0.0
2018-Aug-06 14:30N 65°28' E 012°11'0 0.0
2018-Aug-06 13:59N 65°28' E 012°11'0 0.0
2018-Aug-06 13:30N 65°28' E 012°11'0 0.0
2018-Aug-06 13:00N 65°28' E 012°11'0 0.0
2018-Aug-06 12:30N 65°28' E 012°11'0 0.0
2018-Aug-06 12:00N 65°28' E 012°11'0 0.0
2018-Aug-06 11:30N 65°28' E 012°11'0 0.0
2018-Aug-06 11:00N 65°28' E 012°11'0 0.0
2018-Aug-06 10:30N 65°28' E 012°11'0 0.0
2018-Aug-06 09:59N 65°28' E 012°11'0 0.0
2018-Aug-06 09:30N 65°28' E 012°11'0 0.0
2018-Aug-06 09:00N 65°28' E 012°11'0 0.0
2018-Aug-06 08:29N 65°28' E 012°11'0 0.0
2018-Aug-06 08:00N 65°28' E 012°11'0 0.0
2018-Aug-06 07:30N 65°28' E 012°11'0 0.0
2018-Aug-06 07:00N 65°28' E 012°11'0 0.0
2018-Aug-06 06:30N 65°28' E 012°11'0 0.0
2018-Aug-06 06:01N 65°28' E 012°11'0 0.0
2018-Aug-06 05:30N 65°28' E 012°11'0 0.0
2018-Aug-06 05:00N 65°28' E 012°11'0 0.0
2018-Aug-06 04:30N 65°28' E 012°11'0 0.0
2018-Aug-06 04:00N 65°28' E 012°11'0 0.0
2018-Aug-06 03:29N 65°28' E 012°11'0 0.0
2018-Aug-06 03:00N 65°28' E 012°11'0 0.0
2018-Aug-06 02:30N 65°28' E 012°11'0 0.0
2018-Aug-06 02:00N 65°28' E 012°11'0 0.0
2018-Aug-06 01:30N 65°28' E 012°11'0 0.0
2018-Aug-06 01:00N 65°28' E 012°11'0 0.0
2018-Aug-06 00:30N 65°28' E 012°11'0 0.0
2018-Aug-06 00:00N 65°28' E 012°11'0 0.0
2018-Aug-05 23:30N 65°28' E 012°11'0 0.0
2018-Aug-05 23:00N 65°28' E 012°11'0 0.0
2018-Aug-05 22:30N 65°28' E 012°11'0 0.0
2018-Aug-05 21:59N 65°28' E 012°11'0 0.0
2018-Aug-05 21:30N 65°28' E 012°11'0 0.0
2018-Aug-05 21:00N 65°28' E 012°11'0 0.0
2018-Aug-05 20:30N 65°28' E 012°11'0 0.0
2018-Aug-05 20:00N 65°28' E 012°11'0 0.0
2018-Aug-05 19:30N 65°28' E 012°11'0 0.0
2018-Aug-05 19:01N 65°28' E 012°11'0 0.0
2018-Aug-05 18:30N 65°28' E 012°11'0 0.0
2018-Aug-05 18:00N 65°28' E 012°11'0 0.0
2018-Aug-05 17:30N 65°28' E 012°11'0 0.0
2018-Aug-05 17:00N 65°28' E 012°11'0 0.0
2018-Aug-05 16:30N 65°28' E 012°11'0 0.0
2018-Aug-05 16:00N 65°28' E 012°11'0 0.0
2018-Aug-05 15:30N 65°28' E 012°11'0 0.0
2018-Aug-05 14:58N 65°28' E 012°11'0 0.0
2018-Aug-05 14:30N 65°28' E 012°11'0 0.0
2018-Aug-05 13:30N 65°28' E 012°11'0 0.0
2018-Aug-05 13:00N 65°28' E 012°11'0 0.0
2018-Aug-05 12:29N 65°28' E 012°11'0 0.0
2018-Aug-05 12:00N 65°28' E 012°11'0 0.0
2018-Aug-05 11:29N 65°28' E 012°11'0 0.0
2018-Aug-05 11:00N 65°28' E 012°11'0 0.0
2018-Aug-05 10:30N 65°28' E 012°11'0 0.0
2018-Aug-05 10:00N 65°28' E 012°11'0 0.0
2018-Aug-05 09:30N 65°28' E 012°11'0 0.0
2018-Aug-05 09:00N 65°28' E 012°11'0 0.0
2018-Aug-05 08:30N 65°28' E 012°11'0 0.0
2018-Aug-05 07:59N 65°28' E 012°11'0 0.0
2018-Aug-05 07:30N 65°28' E 012°11'0 0.0
2018-Aug-05 07:00N 65°28' E 012°11'0 0.0
2018-Aug-05 06:30N 65°28' E 012°11'0 0.0
2018-Aug-05 06:00N 65°28' E 012°11'0 0.0
2018-Aug-05 05:30N 65°28' E 012°11'0 0.0
2018-Aug-05 05:00N 65°28' E 012°11'0 0.0
2018-Aug-05 04:30N 65°28' E 012°11'0 0.0
2018-Aug-05 04:00N 65°28' E 012°11'0 0.0
2018-Aug-05 03:29N 65°28' E 012°11'0 0.0
2018-Aug-05 03:00N 65°28' E 012°11'  

Dump ship's entire track history